sensor_id;sensor_type;location;lat;lon;timestamp;temperature;humidity
75451;DHT22;64029;48.244;9.188;2023-03-14T00:02:19;8.60;86.70
75451;DHT22;64029;48.244;9.188;2023-03-14T00:04:46;8.60;86.30
75451;DHT22;64029;48.244;9.188;2023-03-14T00:07:14;8.60;86.10
75451;DHT22;64029;48.244;9.188;2023-03-14T00:09:41;8.60;85.90
75451;DHT22;64029;48.244;9.188;2023-03-14T00:12:09;8.60;86.00
75451;DHT22;64029;48.244;9.188;2023-03-14T00:14:35;8.60;86.10
75451;DHT22;64029;48.244;9.188;2023-03-14T00:17:02;8.60;85.90
75451;DHT22;64029;48.244;9.188;2023-03-14T00:19:29;8.60;85.80
75451;DHT22;64029;48.244;9.188;2023-03-14T00:21:56;8.50;86.40
75451;DHT22;64029;48.244;9.188;2023-03-14T00:24:24;8.50;86.10
75451;DHT22;64029;48.244;9.188;2023-03-14T00:26:51;8.50;85.80
75451;DHT22;64029;48.244;9.188;2023-03-14T00:29:18;8.50;85.60
75451;DHT22;64029;48.244;9.188;2023-03-14T00:31:45;8.50;85.70
75451;DHT22;64029;48.244;9.188;2023-03-14T00:34:12;8.50;85.70
75451;DHT22;64029;48.244;9.188;2023-03-14T00:36:38;8.50;85.70
75451;DHT22;64029;48.244;9.188;2023-03-14T00:39:05;8.40;85.50
75451;DHT22;64029;48.244;9.188;2023-03-14T00:41:34;8.40;85.70
75451;DHT22;64029;48.244;9.188;2023-03-14T00:44:00;8.40;85.60
75451;DHT22;64029;48.244;9.188;2023-03-14T00:46:27;8.40;85.60
75451;DHT22;64029;48.244;9.188;2023-03-14T00:48:54;8.30;86.20
75451;DHT22;64029;48.244;9.188;2023-03-14T00:51:21;8.40;86.20
75451;DHT22;64029;48.244;9.188;2023-03-14T00:53:48;8.30;85.90
75451;DHT22;64029;48.244;9.188;2023-03-14T00:56:15;8.30;86.10
75451;DHT22;64029;48.244;9.188;2023-03-14T00:58:43;8.20;87.00
75451;DHT22;64029;48.244;9.188;2023-03-14T01:01:13;8.30;86.70
75451;DHT22;64029;48.244;9.188;2023-03-14T01:03:40;8.30;86.20
75451;DHT22;64029;48.244;9.188;2023-03-14T01:06:12;8.30;86.00
75451;DHT22;64029;48.244;9.188;2023-03-14T01:08:39;8.30;86.50
75451;DHT22;64029;48.244;9.188;2023-03-14T01:11:08;8.30;86.50
75451;DHT22;64029;48.244;9.188;2023-03-14T01:13:36;8.20;86.30
75451;DHT22;64029;48.244;9.188;2023-03-14T01:16:06;8.20;86.10
75451;DHT22;64029;48.244;9.188;2023-03-14T01:18:34;8.20;86.50
75451;DHT22;64029;48.244;9.188;2023-03-14T01:21:01;8.20;86.40
75451;DHT22;64029;48.244;9.188;2023-03-14T01:23:28;8.20;86.10
75451;DHT22;64029;48.244;9.188;2023-03-14T01:25:55;8.20;85.90
75451;DHT22;64029;48.244;9.188;2023-03-14T01:28:22;8.20;85.60
75451;DHT22;64029;48.244;9.188;2023-03-14T01:30:49;8.10;86.00
75451;DHT22;64029;48.244;9.188;2023-03-14T01:33:17;8.10;87.40
75451;DHT22;64029;48.244;9.188;2023-03-14T01:35:44;8.10;86.30
75451;DHT22;64029;48.244;9.188;2023-03-14T01:38:11;8.00;88.50
75451;DHT22;64029;48.244;9.188;2023-03-14T01:40:42;8.00;87.50
75451;DHT22;64029;48.244;9.188;2023-03-14T01:43:15;8.00;86.60
75451;DHT22;64029;48.244;9.188;2023-03-14T01:48:47;8.00;87.40
75451;DHT22;64029;48.244;9.188;2023-03-14T01:51:19;8.00;87.20
75451;DHT22;64029;48.244;9.188;2023-03-14T01:53:48;8.00;86.50
75451;DHT22;64029;48.244;9.188;2023-03-14T01:56:17;8.00;86.50
75451;DHT22;64029;48.244;9.188;2023-03-14T01:58:46;8.00;86.60
75451;DHT22;64029;48.244;9.188;2023-03-14T02:01:16;8.00;86.50
75451;DHT22;64029;48.244;9.188;2023-03-14T02:03:48;8.00;87.00
75451;DHT22;64029;48.244;9.188;2023-03-14T02:06:18;8.00;86.50
75451;DHT22;64029;48.244;9.188;2023-03-14T02:08:46;7.90;88.00
75451;DHT22;64029;48.244;9.188;2023-03-14T02:11:14;7.90;87.60
75451;DHT22;64029;48.244;9.188;2023-03-14T02:13:40;7.90;86.80
75451;DHT22;64029;48.244;9.188;2023-03-14T02:16:09;7.90;87.30
75451;DHT22;64029;48.244;9.188;2023-03-14T02:18:36;7.90;87.60
75451;DHT22;64029;48.244;9.188;2023-03-14T02:21:08;7.90;87.40
75451;DHT22;64029;48.244;9.188;2023-03-14T02:23:42;7.90;87.70
75451;DHT22;64029;48.244;9.188;2023-03-14T02:26:16;7.90;86.90
75451;DHT22;64029;48.244;9.188;2023-03-14T02:28:48;7.90;87.00
75451;DHT22;64029;48.244;9.188;2023-03-14T02:31:16;7.90;87.20
75451;DHT22;64029;48.244;9.188;2023-03-14T02:33:43;7.90;86.80
75451;DHT22;64029;48.244;9.188;2023-03-14T02:36:11;7.90;87.20
75451;DHT22;64029;48.244;9.188;2023-03-14T02:38:45;7.80;87.20
75451;DHT22;64029;48.244;9.188;2023-03-14T02:41:13;7.80;87.40
75451;DHT22;64029;48.244;9.188;2023-03-14T02:43:40;7.80;86.60
75451;DHT22;64029;48.244;9.188;2023-03-14T02:46:10;7.80;86.20
75451;DHT22;64029;48.244;9.188;2023-03-14T02:48:41;7.80;86.40
75451;DHT22;64029;48.244;9.188;2023-03-14T02:51:10;7.80;86.60
75451;DHT22;64029;48.244;9.188;2023-03-14T02:53:38;7.80;87.10
75451;DHT22;64029;48.244;9.188;2023-03-14T02:56:07;7.80;86.90
75451;DHT22;64029;48.244;9.188;2023-03-14T02:58:35;7.80;86.50
75451;DHT22;64029;48.244;9.188;2023-03-14T03:01:02;7.70;87.00
75451;DHT22;64029;48.244;9.188;2023-03-14T03:03:30;7.70;87.20
75451;DHT22;64029;48.244;9.188;2023-03-14T03:05:57;7.70;86.30
75451;DHT22;64029;48.244;9.188;2023-03-14T03:08:26;7.70;86.70
75451;DHT22;64029;48.244;9.188;2023-03-14T03:10:53;7.70;86.30
75451;DHT22;64029;48.244;9.188;2023-03-14T03:13:20;7.70;86.20
75451;DHT22;64029;48.244;9.188;2023-03-14T03:15:47;7.70;86.40
75451;DHT22;64029;48.244;9.188;2023-03-14T03:18:14;7.70;86.50
75451;DHT22;64029;48.244;9.188;2023-03-14T03:20:42;7.70;86.90
75451;DHT22;64029;48.244;9.188;2023-03-14T03:23:09;7.70;86.40
75451;DHT22;64029;48.244;9.188;2023-03-14T03:25:36;7.70;86.20
75451;DHT22;64029;48.244;9.188;2023-03-14T03:28:03;7.70;85.80
75451;DHT22;64029;48.244;9.188;2023-03-14T03:30:33;7.70;86.50
75451;DHT22;64029;48.244;9.188;2023-03-14T03:33:00;7.70;86.40
75451;DHT22;64029;48.244;9.188;2023-03-14T03:35:27;7.70;85.90
75451;DHT22;64029;48.244;9.188;2023-03-14T03:37:55;7.60;85.80
75451;DHT22;64029;48.244;9.188;2023-03-14T03:40:22;7.60;86.30
75451;DHT22;64029;48.244;9.188;2023-03-14T03:42:49;7.60;86.10
75451;DHT22;64029;48.244;9.188;2023-03-14T03:45:16;7.60;85.70
75451;DHT22;64029;48.244;9.188;2023-03-14T03:47:43;7.60;85.60
75451;DHT22;64029;48.244;9.188;2023-03-14T03:50:10;7.60;86.70
75451;DHT22;64029;48.244;9.188;2023-03-14T03:52:37;7.60;85.90
75451;DHT22;64029;48.244;9.188;2023-03-14T03:55:06;7.60;85.90
75451;DHT22;64029;48.244;9.188;2023-03-14T03:57:33;7.50;86.20
75451;DHT22;64029;48.244;9.188;2023-03-14T04:00:00;7.50;85.80
75451;DHT22;64029;48.244;9.188;2023-03-14T04:02:26;7.50;86.00
75451;DHT22;64029;48.244;9.188;2023-03-14T04:04:53;7.50;85.60
75451;DHT22;64029;48.244;9.188;2023-03-14T04:07:20;7.50;86.60
75451;DHT22;64029;48.244;9.188;2023-03-14T04:09:47;7.50;87.10
75451;DHT22;64029;48.244;9.188;2023-03-14T04:12:15;7.50;86.40
75451;DHT22;64029;48.244;9.188;2023-03-14T04:14:42;7.50;86.40
75451;DHT22;64029;48.244;9.188;2023-03-14T04:17:09;7.50;86.00
75451;DHT22;64029;48.244;9.188;2023-03-14T04:19:36;7.40;86.30
75451;DHT22;64029;48.244;9.188;2023-03-14T04:22:02;7.40;87.10
75451;DHT22;64029;48.244;9.188;2023-03-14T04:24:29;7.40;86.60
75451;DHT22;64029;48.244;9.188;2023-03-14T04:26:56;7.40;86.20
75451;DHT22;64029;48.244;9.188;2023-03-14T04:29:24;7.40;86.50
75451;DHT22;64029;48.244;9.188;2023-03-14T04:31:51;7.40;86.40
75451;DHT22;64029;48.244;9.188;2023-03-14T04:34:18;7.40;86.30
75451;DHT22;64029;48.244;9.188;2023-03-14T04:36:45;7.30;86.70
75451;DHT22;64029;48.244;9.188;2023-03-14T04:39:12;7.30;87.20
75451;DHT22;64029;48.244;9.188;2023-03-14T04:41:39;7.20;87.80
75451;DHT22;64029;48.244;9.188;2023-03-14T04:44:05;7.20;87.60
75451;DHT22;64029;48.244;9.188;2023-03-14T04:46:34;7.20;87.30
75451;DHT22;64029;48.244;9.188;2023-03-14T04:49:00;7.20;86.80
75451;DHT22;64029;48.244;9.188;2023-03-14T04:51:27;7.20;86.30
75451;DHT22;64029;48.244;9.188;2023-03-14T04:53:54;7.20;86.00
75451;DHT22;64029;48.244;9.188;2023-03-14T04:56:21;7.20;86.10
75451;DHT22;64029;48.244;9.188;2023-03-14T04:58:48;7.20;86.10
75451;DHT22;64029;48.244;9.188;2023-03-14T05:01:15;7.20;86.10
75451;DHT22;64029;48.244;9.188;2023-03-14T05:03:44;7.20;86.80
75451;DHT22;64029;48.244;9.188;2023-03-14T05:06:11;7.20;86.20
75451;DHT22;64029;48.244;9.188;2023-03-14T05:08:38;7.10;86.20
75451;DHT22;64029;48.244;9.188;2023-03-14T05:11:05;7.10;86.20
75451;DHT22;64029;48.244;9.188;2023-03-14T05:13:32;7.10;86.10
75451;DHT22;64029;48.244;9.188;2023-03-14T05:16:06;7.00;86.20
75451;DHT22;64029;48.244;9.188;2023-03-14T05:18:34;7.10;86.00
75451;DHT22;64029;48.244;9.188;2023-03-14T05:21:02;7.10;86.00
75451;DHT22;64029;48.244;9.188;2023-03-14T05:23:30;7.00;86.20
75451;DHT22;64029;48.244;9.188;2023-03-14T05:25:56;7.00;86.00
75451;DHT22;64029;48.244;9.188;2023-03-14T05:28:23;7.00;86.00
75451;DHT22;64029;48.244;9.188;2023-03-14T05:30:50;6.90;86.00
75451;DHT22;64029;48.244;9.188;2023-03-14T05:33:17;6.90;86.50
75451;DHT22;64029;48.244;9.188;2023-03-14T05:35:44;6.90;86.70
75451;DHT22;64029;48.244;9.188;2023-03-14T05:38:12;6.90;85.90
75451;DHT22;64029;48.244;9.188;2023-03-14T05:40:39;6.90;86.10
75451;DHT22;64029;48.244;9.188;2023-03-14T05:43:06;6.90;85.70
75451;DHT22;64029;48.244;9.188;2023-03-14T05:45:34;6.90;85.60
75451;DHT22;64029;48.244;9.188;2023-03-14T05:48:01;6.90;85.50
75451;DHT22;64029;48.244;9.188;2023-03-14T05:50:28;6.80;87.10
75451;DHT22;64029;48.244;9.188;2023-03-14T05:52:55;6.80;86.10
75451;DHT22;64029;48.244;9.188;2023-03-14T05:55:23;6.80;85.70
75451;DHT22;64029;48.244;9.188;2023-03-14T05:57:50;6.80;86.70
75451;DHT22;64029;48.244;9.188;2023-03-14T06:00:18;6.70;86.50
75451;DHT22;64029;48.244;9.188;2023-03-14T06:02:45;6.70;86.40
75451;DHT22;64029;48.244;9.188;2023-03-14T06:05:12;6.70;85.70
75451;DHT22;64029;48.244;9.188;2023-03-14T06:07:39;6.70;85.50
75451;DHT22;64029;48.244;9.188;2023-03-14T06:10:06;6.80;85.40
75451;DHT22;64029;48.244;9.188;2023-03-14T06:12:35;6.70;85.40
75451;DHT22;64029;48.244;9.188;2023-03-14T06:15:02;6.70;85.30
75451;DHT22;64029;48.244;9.188;2023-03-14T06:17:29;6.70;85.50
75451;DHT22;64029;48.244;9.188;2023-03-14T06:19:56;6.70;85.90
75451;DHT22;64029;48.244;9.188;2023-03-14T06:22:23;6.60;85.80
75451;DHT22;64029;48.244;9.188;2023-03-14T06:24:50;6.60;86.00
75451;DHT22;64029;48.244;9.188;2023-03-14T06:27:18;6.50;85.90
75451;DHT22;64029;48.244;9.188;2023-03-14T06:29:46;6.50;85.80
75451;DHT22;64029;48.244;9.188;2023-03-14T06:32:13;6.60;85.70
75451;DHT22;64029;48.244;9.188;2023-03-14T06:34:40;6.50;86.10
75451;DHT22;64029;48.244;9.188;2023-03-14T06:37:07;6.50;85.80
75451;DHT22;64029;48.244;9.188;2023-03-14T06:39:34;6.40;85.60
75451;DHT22;64029;48.244;9.188;2023-03-14T06:42:01;6.50;85.70
75451;DHT22;64029;48.244;9.188;2023-03-14T06:44:27;6.50;85.80
75451;DHT22;64029;48.244;9.188;2023-03-14T06:46:56;6.40;85.90
75451;DHT22;64029;48.244;9.188;2023-03-14T06:49:23;6.40;86.00
75451;DHT22;64029;48.244;9.188;2023-03-14T06:51:49;6.30;85.90
75451;DHT22;64029;48.244;9.188;2023-03-14T06:54:16;6.30;85.80
75451;DHT22;64029;48.244;9.188;2023-03-14T06:56:43;6.30;85.90
75451;DHT22;64029;48.244;9.188;2023-03-14T06:59:10;6.30;85.90
75451;DHT22;64029;48.244;9.188;2023-03-14T07:01:37;6.30;85.80
75451;DHT22;64029;48.244;9.188;2023-03-14T07:04:05;6.30;85.50
75451;DHT22;64029;48.244;9.188;2023-03-14T07:06:33;6.30;85.90
75451;DHT22;64029;48.244;9.188;2023-03-14T07:09:00;6.30;85.00
75451;DHT22;64029;48.244;9.188;2023-03-14T07:11:27;6.30;84.90
75451;DHT22;64029;48.244;9.188;2023-03-14T07:13:54;6.30;84.90
75451;DHT22;64029;48.244;9.188;2023-03-14T07:16:21;6.30;85.30
75451;DHT22;64029;48.244;9.188;2023-03-14T07:18:48;6.30;85.00
75451;DHT22;64029;48.244;9.188;2023-03-14T07:21:17;6.30;85.10
75451;DHT22;64029;48.244;9.188;2023-03-14T07:23:43;6.30;85.20
75451;DHT22;64029;48.244;9.188;2023-03-14T07:26:10;6.30;85.10
75451;DHT22;64029;48.244;9.188;2023-03-14T07:28:37;6.40;85.40
75451;DHT22;64029;48.244;9.188;2023-03-14T07:31:05;6.40;85.20
75451;DHT22;64029;48.244;9.188;2023-03-14T07:33:32;6.40;85.40
75451;DHT22;64029;48.244;9.188;2023-03-14T07:35:59;6.40;85.80
75451;DHT22;64029;48.244;9.188;2023-03-14T07:38:27;6.40;86.10
75451;DHT22;64029;48.244;9.188;2023-03-14T07:40:58;6.40;85.80
75451;DHT22;64029;48.244;9.188;2023-03-14T07:43:25;6.50;85.60
75451;DHT22;64029;48.244;9.188;2023-03-14T07:45:52;6.60;86.40
75451;DHT22;64029;48.244;9.188;2023-03-14T07:48:19;6.60;86.80
75451;DHT22;64029;48.244;9.188;2023-03-14T07:50:48;6.70;86.60
75451;DHT22;64029;48.244;9.188;2023-03-14T07:53:15;6.80;86.20
75451;DHT22;64029;48.244;9.188;2023-03-14T07:55:44;6.90;87.60
75451;DHT22;64029;48.244;9.188;2023-03-14T07:58:11;7.00;86.50
75451;DHT22;64029;48.244;9.188;2023-03-14T08:00:38;7.20;87.20
75451;DHT22;64029;48.244;9.188;2023-03-14T08:03:05;7.30;87.20
75451;DHT22;64029;48.244;9.188;2023-03-14T08:05:34;7.40;87.20
75451;DHT22;64029;48.244;9.188;2023-03-14T08:08:02;7.50;86.90
75451;DHT22;64029;48.244;9.188;2023-03-14T08:10:29;7.60;86.90
75451;DHT22;64029;48.244;9.188;2023-03-14T08:12:59;7.70;87.00
75451;DHT22;64029;48.244;9.188;2023-03-14T08:15:28;7.80;87.00
75451;DHT22;64029;48.244;9.188;2023-03-14T08:17:55;7.90;86.90
75451;DHT22;64029;48.244;9.188;2023-03-14T08:20:24;8.00;86.70
75451;DHT22;64029;48.244;9.188;2023-03-14T08:22:52;8.10;86.50
75451;DHT22;64029;48.244;9.188;2023-03-14T08:25:19;8.10;86.10
75451;DHT22;64029;48.244;9.188;2023-03-14T08:27:46;8.20;86.60
75451;DHT22;64029;48.244;9.188;2023-03-14T08:30:15;8.30;85.10
75451;DHT22;64029;48.244;9.188;2023-03-14T08:32:43;8.30;85.60
75451;DHT22;64029;48.244;9.188;2023-03-14T08:35:10;8.40;85.10
75451;DHT22;64029;48.244;9.188;2023-03-14T08:37:37;8.40;84.80
75451;DHT22;64029;48.244;9.188;2023-03-14T08:40:06;8.50;85.60
75451;DHT22;64029;48.244;9.188;2023-03-14T08:42:34;8.50;84.40
75451;DHT22;64029;48.244;9.188;2023-03-14T08:45:01;8.50;84.50
75451;DHT22;64029;48.244;9.188;2023-03-14T08:47:29;8.60;85.00
75451;DHT22;64029;48.244;9.188;2023-03-14T08:49:56;8.60;83.90
75451;DHT22;64029;48.244;9.188;2023-03-14T08:52:23;8.60;84.20
75451;DHT22;64029;48.244;9.188;2023-03-14T08:54:50;8.60;84.80
75451;DHT22;64029;48.244;9.188;2023-03-14T08:57:17;8.60;83.60
75451;DHT22;64029;48.244;9.188;2023-03-14T08:59:44;8.70;83.30
75451;DHT22;64029;48.244;9.188;2023-03-14T09:02:11;8.80;84.80
75451;DHT22;64029;48.244;9.188;2023-03-14T09:04:39;8.80;84.90
75451;DHT22;64029;48.244;9.188;2023-03-14T09:07:06;8.90;85.10
75451;DHT22;64029;48.244;9.188;2023-03-14T09:09:33;8.80;83.20
75451;DHT22;64029;48.244;9.188;2023-03-14T09:12:00;8.80;83.40
75451;DHT22;64029;48.244;9.188;2023-03-14T09:14:27;8.80;83.10
75451;DHT22;64029;48.244;9.188;2023-03-14T09:16:54;8.80;84.20
75451;DHT22;64029;48.244;9.188;2023-03-14T09:19:21;8.80;82.30
75451;DHT22;64029;48.244;9.188;2023-03-14T09:21:49;8.80;83.50
75451;DHT22;64029;48.244;9.188;2023-03-14T09:24:16;8.80;84.00
75451;DHT22;64029;48.244;9.188;2023-03-14T09:26:43;8.90;84.00
75451;DHT22;64029;48.244;9.188;2023-03-14T09:29:10;8.80;82.90
75451;DHT22;64029;48.244;9.188;2023-03-14T09:31:37;8.80;82.90
75451;DHT22;64029;48.244;9.188;2023-03-14T09:34:04;8.90;83.50
75451;DHT22;64029;48.244;9.188;2023-03-14T09:36:31;8.80;82.70
75451;DHT22;64029;48.244;9.188;2023-03-14T09:38:59;8.80;83.10
75451;DHT22;64029;48.244;9.188;2023-03-14T09:41:28;8.90;83.60
75451;DHT22;64029;48.244;9.188;2023-03-14T09:44:02;8.80;82.20
75451;DHT22;64029;48.244;9.188;2023-03-14T09:46:31;8.80;83.40
75451;DHT22;64029;48.244;9.188;2023-03-14T09:49:01;8.80;82.80
75451;DHT22;64029;48.244;9.188;2023-03-14T09:51:29;8.80;83.30
75451;DHT22;64029;48.244;9.188;2023-03-14T09:53:58;8.80;83.20
75451;DHT22;64029;48.244;9.188;2023-03-14T09:56:29;8.80;82.90
75451;DHT22;64029;48.244;9.188;2023-03-14T09:58:59;8.90;83.40
75451;DHT22;64029;48.244;9.188;2023-03-14T10:01:28;8.90;83.30
75451;DHT22;64029;48.244;9.188;2023-03-14T10:03:57;8.90;83.50
75451;DHT22;64029;48.244;9.188;2023-03-14T10:06:27;9.00;83.90
75451;DHT22;64029;48.244;9.188;2023-03-14T10:08:55;9.00;83.90
75451;DHT22;64029;48.244;9.188;2023-03-14T10:11:25;9.00;83.40
75451;DHT22;64029;48.244;9.188;2023-03-14T10:14:04;9.10;83.60
75451;DHT22;64029;48.244;9.188;2023-03-14T10:16:33;9.10;83.60
75451;DHT22;64029;48.244;9.188;2023-03-14T10:19:05;9.10;83.30
75451;DHT22;64029;48.244;9.188;2023-03-14T10:21:37;9.10;83.20
75451;DHT22;64029;48.244;9.188;2023-03-14T10:26:55;9.10;83.70
75451;DHT22;64029;48.244;9.188;2023-03-14T10:29:24;9.20;83.30
75451;DHT22;64029;48.244;9.188;2023-03-14T10:31:52;9.20;83.30
75451;DHT22;64029;48.244;9.188;2023-03-14T10:34:23;9.20;83.50
75451;DHT22;64029;48.244;9.188;2023-03-14T10:36:55;9.20;82.70
75451;DHT22;64029;48.244;9.188;2023-03-14T10:39:29;9.20;82.60
75451;DHT22;64029;48.244;9.188;2023-03-14T10:42:05;9.20;82.10
75451;DHT22;64029;48.244;9.188;2023-03-14T10:44:34;9.20;81.90
75451;DHT22;64029;48.244;9.188;2023-03-14T10:47:03;9.20;81.50
75451;DHT22;64029;48.244;9.188;2023-03-14T10:49:34;9.20;81.80
75451;DHT22;64029;48.244;9.188;2023-03-14T10:52:13;9.20;82.40
75451;DHT22;64029;48.244;9.188;2023-03-14T10:54:40;9.20;82.70
75451;DHT22;64029;48.244;9.188;2023-03-14T10:57:11;9.30;82.30
75451;DHT22;64029;48.244;9.188;2023-03-14T10:59:41;9.30;82.20
75451;DHT22;64029;48.244;9.188;2023-03-14T11:02:25;9.30;82.20
75451;DHT22;64029;48.244;9.188;2023-03-14T11:05:02;9.20;82.30
75451;DHT22;64029;48.244;9.188;2023-03-14T11:07:35;9.20;82.60
75451;DHT22;64029;48.244;9.188;2023-03-14T11:10:08;9.10;82.10
75451;DHT22;64029;48.244;9.188;2023-03-14T11:12:45;9.00;82.70
75451;DHT22;64029;48.244;9.188;2023-03-14T11:15:21;9.00;83.10
75451;DHT22;64029;48.244;9.188;2023-03-14T11:17:58;9.00;83.40
75451;DHT22;64029;48.244;9.188;2023-03-14T11:20:35;9.00;83.50
75451;DHT22;64029;48.244;9.188;2023-03-14T11:23:12;9.10;83.60
75451;DHT22;64029;48.244;9.188;2023-03-14T11:25:44;9.20;83.70
75451;DHT22;64029;48.244;9.188;2023-03-14T11:28:18;9.20;84.00
75451;DHT22;64029;48.244;9.188;2023-03-14T11:30:51;9.20;84.10
75451;DHT22;64029;48.244;9.188;2023-03-14T11:33:22;9.20;84.10
75451;DHT22;64029;48.244;9.188;2023-03-14T11:35:58;9.20;84.10
75451;DHT22;64029;48.244;9.188;2023-03-14T11:38:30;9.10;83.90
75451;DHT22;64029;48.244;9.188;2023-03-14T11:40:59;9.10;84.30
75451;DHT22;64029;48.244;9.188;2023-03-14T11:43:29;8.90;84.70
75451;DHT22;64029;48.244;9.188;2023-03-14T11:46:03;8.90;84.60
75451;DHT22;64029;48.244;9.188;2023-03-14T11:48:37;9.00;84.40
75451;DHT22;64029;48.244;9.188;2023-03-14T11:51:09;8.90;84.30
75451;DHT22;64029;48.244;9.188;2023-03-14T11:53:45;8.70;84.00
75451;DHT22;64029;48.244;9.188;2023-03-14T11:56:19;8.80;84.40
75451;DHT22;64029;48.244;9.188;2023-03-14T11:58:57;8.70;84.10
75451;DHT22;64029;48.244;9.188;2023-03-14T12:01:33;8.70;84.10
75451;DHT22;64029;48.244;9.188;2023-03-14T12:04:05;8.70;84.10
75451;DHT22;64029;48.244;9.188;2023-03-14T12:06:40;8.80;84.20
75451;DHT22;64029;48.244;9.188;2023-03-14T12:09:11;8.70;83.90
75451;DHT22;64029;48.244;9.188;2023-03-14T12:11:41;8.70;84.10
75451;DHT22;64029;48.244;9.188;2023-03-14T12:14:23;8.70;84.20
75451;DHT22;64029;48.244;9.188;2023-03-14T12:16:54;8.70;84.40
75451;DHT22;64029;48.244;9.188;2023-03-14T12:19:28;8.80;84.40
75451;DHT22;64029;48.244;9.188;2023-03-14T12:21:59;8.80;84.40
75451;DHT22;64029;48.244;9.188;2023-03-14T12:24:29;8.70;84.50
75451;DHT22;64029;48.244;9.188;2023-03-14T12:26:58;8.80;84.40
75451;DHT22;64029;48.244;9.188;2023-03-14T12:29:26;8.80;84.40
75451;DHT22;64029;48.244;9.188;2023-03-14T12:34:50;8.70;84.10
75451;DHT22;64029;48.244;9.188;2023-03-14T12:37:29;8.70;84.40
75451;DHT22;64029;48.244;9.188;2023-03-14T12:40:13;8.70;84.20
75451;DHT22;64029;48.244;9.188;2023-03-14T12:42:50;8.70;84.10
75451;DHT22;64029;48.244;9.188;2023-03-14T12:45:28;8.60;84.20
75451;DHT22;64029;48.244;9.188;2023-03-14T12:48:01;8.60;84.20
75451;DHT22;64029;48.244;9.188;2023-03-14T12:50:34;8.60;84.60
75451;DHT22;64029;48.244;9.188;2023-03-14T12:53:32;8.50;84.60
75451;DHT22;64029;48.244;9.188;2023-03-14T12:56:07;8.30;85.10
75451;DHT22;64029;48.244;9.188;2023-03-14T12:58:38;8.00;85.60
75451;DHT22;64029;48.244;9.188;2023-03-14T13:01:15;7.80;83.50
75451;DHT22;64029;48.244;9.188;2023-03-14T13:03:45;7.60;83.80
75451;DHT22;64029;48.244;9.188;2023-03-14T13:06:48;7.50;83.70
75451;DHT22;64029;48.244;9.188;2023-03-14T13:09:53;7.60;83.90
75451;DHT22;64029;48.244;9.188;2023-03-14T13:12:28;7.70;83.30
75451;DHT22;64029;48.244;9.188;2023-03-14T13:14:59;7.60;83.10
75451;DHT22;64029;48.244;9.188;2023-03-14T13:17:30;7.60;82.60
75451;DHT22;64029;48.244;9.188;2023-03-14T13:20:01;7.60;83.00
75451;DHT22;64029;48.244;9.188;2023-03-14T13:22:33;7.50;81.80
75451;DHT22;64029;48.244;9.188;2023-03-14T13:25:03;7.40;82.30
75451;DHT22;64029;48.244;9.188;2023-03-14T13:27:32;7.40;81.80
75451;DHT22;64029;48.244;9.188;2023-03-14T13:30:13;7.20;82.30
75451;DHT22;64029;48.244;9.188;2023-03-14T13:32:42;7.30;82.40
75451;DHT22;64029;48.244;9.188;2023-03-14T13:35:15;7.20;81.40
75451;DHT22;64029;48.244;9.188;2023-03-14T13:37:44;7.30;82.10
75451;DHT22;64029;48.244;9.188;2023-03-14T13:40:20;7.30;82.30
75451;DHT22;64029;48.244;9.188;2023-03-14T13:42:47;7.40;82.00
75451;DHT22;64029;48.244;9.188;2023-03-14T13:45:14;7.40;81.50
75451;DHT22;64029;48.244;9.188;2023-03-14T13:47:41;7.40;80.70
75451;DHT22;64029;48.244;9.188;2023-03-14T13:50:15;7.40;80.00
75451;DHT22;64029;48.244;9.188;2023-03-14T13:52:44;7.30;79.00
75451;DHT22;64029;48.244;9.188;2023-03-14T13:55:16;7.20;78.60
75451;DHT22;64029;48.244;9.188;2023-03-14T13:57:45;7.10;78.10
75451;DHT22;64029;48.244;9.188;2023-03-14T14:00:21;7.20;77.70
75451;DHT22;64029;48.244;9.188;2023-03-14T14:02:53;7.00;77.80
75451;DHT22;64029;48.244;9.188;2023-03-14T14:05:22;7.20;79.10
75451;DHT22;64029;48.244;9.188;2023-03-14T14:07:50;7.10;78.00
75451;DHT22;64029;48.244;9.188;2023-03-14T14:10:19;7.10;78.90
75451;DHT22;64029;48.244;9.188;2023-03-14T14:12:48;7.10;78.70
75451;DHT22;64029;48.244;9.188;2023-03-14T14:15:20;7.20;78.50
75451;DHT22;64029;48.244;9.188;2023-03-14T14:17:50;7.00;77.40
75451;DHT22;64029;48.244;9.188;2023-03-14T14:20:23;6.90;78.80
75451;DHT22;64029;48.244;9.188;2023-03-14T14:22:59;7.00;78.50
75451;DHT22;64029;48.244;9.188;2023-03-14T14:25:28;7.00;79.40
75451;DHT22;64029;48.244;9.188;2023-03-14T14:27:55;7.20;79.30
75451;DHT22;64029;48.244;9.188;2023-03-14T14:30:29;7.20;78.10
75451;DHT22;64029;48.244;9.188;2023-03-14T14:33:12;7.10;78.00
75451;DHT22;64029;48.244;9.188;2023-03-14T14:35:40;7.20;77.30
75451;DHT22;64029;48.244;9.188;2023-03-14T14:38:12;7.10;77.40
75451;DHT22;64029;48.244;9.188;2023-03-14T14:40:47;7.10;76.70
75451;DHT22;64029;48.244;9.188;2023-03-14T14:43:17;7.00;77.20
75451;DHT22;64029;48.244;9.188;2023-03-14T14:45:48;7.00;76.40
75451;DHT22;64029;48.244;9.188;2023-03-14T14:48:19;6.90;74.00
75451;DHT22;64029;48.244;9.188;2023-03-14T14:51:00;6.80;74.50
75451;DHT22;64029;48.244;9.188;2023-03-14T14:53:36;6.80;74.90
75451;DHT22;64029;48.244;9.188;2023-03-14T14:56:07;7.00;75.90
75451;DHT22;64029;48.244;9.188;2023-03-14T14:58:36;6.90;73.10
75451;DHT22;64029;48.244;9.188;2023-03-14T15:01:10;6.70;72.70
75451;DHT22;64029;48.244;9.188;2023-03-14T15:03:38;6.70;73.80
75451;DHT22;64029;48.244;9.188;2023-03-14T15:06:09;6.70;72.80
75451;DHT22;64029;48.244;9.188;2023-03-14T15:08:38;6.80;73.80
75451;DHT22;64029;48.244;9.188;2023-03-14T15:11:05;6.70;72.70
75451;DHT22;64029;48.244;9.188;2023-03-14T15:13:32;6.70;72.70
75451;DHT22;64029;48.244;9.188;2023-03-14T15:15:59;6.70;71.60
75451;DHT22;64029;48.244;9.188;2023-03-14T15:18:29;6.80;74.50
75451;DHT22;64029;48.244;9.188;2023-03-14T15:20:55;6.70;74.40
75451;DHT22;64029;48.244;9.188;2023-03-14T15:23:22;6.80;73.50
75451;DHT22;64029;48.244;9.188;2023-03-14T15:25:51;6.80;73.30
75451;DHT22;64029;48.244;9.188;2023-03-14T15:28:19;6.80;71.90
75451;DHT22;64029;48.244;9.188;2023-03-14T15:30:47;6.90;73.60
75451;DHT22;64029;48.244;9.188;2023-03-14T15:33:14;6.80;71.50
75451;DHT22;64029;48.244;9.188;2023-03-14T15:35:42;6.70;70.60
75451;DHT22;64029;48.244;9.188;2023-03-14T15:38:12;6.70;72.20
75451;DHT22;64029;48.244;9.188;2023-03-14T15:40:39;6.80;72.60
75451;DHT22;64029;48.244;9.188;2023-03-14T15:43:08;6.90;71.70
75451;DHT22;64029;48.244;9.188;2023-03-14T15:45:35;6.90;71.90
75451;DHT22;64029;48.244;9.188;2023-03-14T15:48:03;6.90;71.70
75451;DHT22;64029;48.244;9.188;2023-03-14T15:50:30;6.80;71.40
75451;DHT22;64029;48.244;9.188;2023-03-14T15:52:57;6.70;68.90
75451;DHT22;64029;48.244;9.188;2023-03-14T15:55:24;6.80;71.40
75451;DHT22;64029;48.244;9.188;2023-03-14T15:57:50;6.80;70.80
75451;DHT22;64029;48.244;9.188;2023-03-14T16:00:20;6.80;70.60
75451;DHT22;64029;48.244;9.188;2023-03-14T16:02:48;6.70;70.60
75451;DHT22;64029;48.244;9.188;2023-03-14T16:05:16;6.70;70.30
75451;DHT22;64029;48.244;9.188;2023-03-14T16:07:44;6.60;69.00